createdAt,value
2022-12-03T00:00:36.624Z,1020.63
2022-12-03T00:01:36.612Z,1020.66
2022-12-03T00:02:36.755Z,1020.68
2022-12-03T00:03:36.690Z,1020.60
2022-12-03T00:04:36.572Z,1020.54
2022-12-03T00:05:36.566Z,1020.57
2022-12-03T00:06:36.624Z,1020.61
2022-12-03T00:07:36.647Z,1020.54
2022-12-03T00:08:36.527Z,1020.55
2022-12-03T00:09:36.510Z,1020.56
2022-12-03T00:10:36.499Z,1020.57
2022-12-03T00:11:36.498Z,1020.52
2022-12-03T00:12:36.481Z,1020.51
2022-12-03T00:13:36.465Z,1020.53
2022-12-03T00:14:41.259Z,1020.51
2022-12-03T00:15:36.498Z,1020.54
2022-12-03T00:16:36.471Z,1020.54
2022-12-03T00:17:36.429Z,1020.57
2022-12-03T00:18:36.425Z,1020.54
2022-12-03T00:19:36.400Z,1020.55
2022-12-03T00:20:36.391Z,1020.54
2022-12-03T00:21:36.411Z,1020.55
2022-12-03T00:22:36.367Z,1020.55
2022-12-03T00:23:41.780Z,1020.50
2022-12-03T00:24:36.366Z,1020.52
2022-12-03T00:25:36.366Z,1020.47
2022-12-03T00:26:36.336Z,1020.53
2022-12-03T00:27:36.338Z,1020.52
2022-12-03T00:28:36.309Z,1020.52
2022-12-03T00:29:36.297Z,1020.50
2022-12-03T00:30:36.295Z,1020.50
2022-12-03T00:31:36.341Z,1020.52
2022-12-03T00:32:36.299Z,1020.55
2022-12-03T00:33:36.249Z,1020.53
2022-12-03T00:34:36.278Z,1020.54
2022-12-03T00:35:36.236Z,1020.52
2022-12-03T00:36:36.224Z,1020.51
2022-12-03T00:37:36.243Z,1020.48
2022-12-03T00:38:36.213Z,1020.52
2022-12-03T00:39:36.191Z,1020.51
2022-12-03T00:40:36.177Z,1020.44
2022-12-03T00:41:36.166Z,1020.44
2022-12-03T00:42:36.178Z,1020.48
2022-12-03T00:43:36.152Z,1020.51
2022-12-03T00:44:36.132Z,1020.43
2022-12-03T00:45:36.128Z,1020.44
2022-12-03T00:46:36.167Z,1020.44
2022-12-03T00:47:36.110Z,1020.42
2022-12-03T00:48:36.121Z,1020.39
2022-12-03T00:49:36.085Z,1020.42
2022-12-03T00:50:36.070Z,1020.39
2022-12-03T00:51:36.078Z,1020.37
2022-12-03T00:52:36.053Z,1020.42
2022-12-03T00:53:36.061Z,1020.40
2022-12-03T00:54:36.028Z,1020.38
2022-12-03T00:55:36.025Z,1020.43
2022-12-03T00:56:36.012Z,1020.36
2022-12-03T00:57:36.023Z,1020.40
2022-12-03T00:58:36.012Z,1020.43
2022-12-03T00:59:35.984Z,1020.41
2022-12-03T01:00:35.966Z,1020.43
2022-12-03T01:01:36.018Z,1020.43
2022-12-03T01:02:35.953Z,1020.38
2022-12-03T01:03:35.931Z,1020.43
2022-12-03T01:04:36.029Z,1020.40
2022-12-03T01:05:35.922Z,1020.38
2022-12-03T01:06:35.924Z,1020.42
2022-12-03T01:07:35.982Z,1020.42
2022-12-03T01:08:35.887Z,1020.44
2022-12-03T01:09:35.882Z,1020.45
2022-12-03T01:10:35.913Z,1020.45
2022-12-03T01:11:35.860Z,1020.45
2022-12-03T01:12:35.845Z,1020.52
2022-12-03T01:13:35.836Z,1020.47
2022-12-03T01:14:35.823Z,1020.47
2022-12-03T01:15:35.897Z,1020.49
2022-12-03T01:16:35.877Z,1020.49
2022-12-03T01:17:35.796Z,1020.45
2022-12-03T01:18:35.775Z,1020.46
2022-12-03T01:19:35.774Z,1020.50
2022-12-03T01:20:35.784Z,1020.50
2022-12-03T01:21:35.743Z,1020.49
2022-12-03T01:22:35.733Z,1020.49
2022-12-03T01:23:35.755Z,1020.53
2022-12-03T01:24:35.722Z,1020.50
2022-12-03T01:25:35.707Z,1020.50
2022-12-03T01:26:35.698Z,1020.52
2022-12-03T01:27:35.694Z,1020.48
2022-12-03T01:28:35.669Z,1020.50
2022-12-03T01:29:35.666Z,1020.49
2022-12-03T01:30:35.672Z,1020.45
2022-12-03T01:31:35.676Z,1020.52
2022-12-03T01:32:35.638Z,1020.44
2022-12-03T01:33:35.622Z,1020.49
2022-12-03T01:34:35.618Z,1020.50
2022-12-03T01:35:35.601Z,1020.49
2022-12-03T01:36:35.610Z,1020.49
2022-12-03T01:37:35.593Z,1020.51
2022-12-03T01:38:35.560Z,1020.47
2022-12-03T01:39:35.556Z,1020.43
2022-12-03T01:40:35.546Z,1020.45
2022-12-03T01:41:35.536Z,1020.44
2022-12-03T01:42:35.523Z,1020.47
2022-12-03T01:43:35.517Z,1020.45
2022-12-03T01:44:35.504Z,1020.45
2022-12-03T01:45:35.495Z,1020.50
2022-12-03T01:46:35.595Z,1020.43
2022-12-03T01:47:35.471Z,1020.47
2022-12-03T01:48:35.456Z,1020.47
2022-12-03T01:49:35.465Z,1020.47
2022-12-03T01:50:35.436Z,1020.46
2022-12-03T01:51:35.432Z,1020.47
2022-12-03T01:52:35.434Z,1020.43
2022-12-03T01:53:35.423Z,1020.43
2022-12-03T01:54:35.405Z,1020.47
2022-12-03T01:55:35.387Z,1020.41
2022-12-03T01:56:35.370Z,1020.45
2022-12-03T01:57:35.370Z,1020.41
2022-12-03T01:58:35.355Z,1020.40
2022-12-03T01:59:35.363Z,1020.30
2022-12-03T02:00:35.331Z,1020.39
2022-12-03T02:01:35.361Z,1020.41
2022-12-03T02:02:35.314Z,1020.35
2022-12-03T02:03:35.362Z,1020.37
2022-12-03T02:04:35.286Z,1020.39
2022-12-03T02:05:35.308Z,1020.34
2022-12-03T02:06:36.259Z,1020.38
2022-12-03T02:07:35.305Z,1020.35
2022-12-03T02:08:35.265Z,1020.35
2022-12-03T02:09:35.241Z,1020.39
2022-12-03T02:10:35.228Z,1020.37
2022-12-03T02:11:35.244Z,1020.35
2022-12-03T02:12:35.197Z,1020.39
2022-12-03T02:13:35.195Z,1020.35
2022-12-03T02:14:35.190Z,1020.32
2022-12-03T02:15:35.171Z,1020.37
2022-12-03T02:16:35.305Z,1020.39
2022-12-03T02:17:35.143Z,1020.35
2022-12-03T02:18:35.139Z,1020.36
2022-12-03T02:19:35.124Z,1020.38
2022-12-03T02:20:35.114Z,1020.32
2022-12-03T02:21:35.102Z,1020.34
2022-12-03T02:22:35.135Z,1020.34
2022-12-03T02:23:35.082Z,1020.33
2022-12-03T02:24:35.093Z,1020.35
2022-12-03T02:25:35.062Z,1020.36
2022-12-03T02:26:35.058Z,1020.39
2022-12-03T02:27:35.038Z,1020.39
2022-12-03T02:28:35.064Z,1020.34
2022-12-03T02:29:35.016Z,1020.37
2022-12-03T02:30:35.013Z,1020.36
2022-12-03T02:31:35.060Z,1020.36
2022-12-03T02:32:34.989Z,1020.33
2022-12-03T02:33:34.974Z,1020.32
2022-12-03T02:34:34.990Z,1020.30
2022-12-03T02:35:34.952Z,1020.32
2022-12-03T02:36:34.950Z,1020.34
2022-12-03T02:37:34.936Z,1020.35
2022-12-03T02:38:34.950Z,1020.38
2022-12-03T02:39:34.945Z,1020.34
2022-12-03T02:40:34.945Z,1020.35
2022-12-03T02:41:34.893Z,1020.36
2022-12-03T02:42:34.887Z,1020.36
2022-12-03T02:43:34.868Z,1020.32
2022-12-03T02:44:34.868Z,1020.37
2022-12-03T02:45:34.870Z,1020.37
2022-12-03T02:46:34.933Z,1020.34
2022-12-03T02:47:34.829Z,1020.33
2022-12-03T02:48:34.813Z,1020.33
2022-12-03T02:49:34.842Z,1020.28
2022-12-03T02:50:34.797Z,1020.32
2022-12-03T02:51:34.782Z,1020.33
2022-12-03T02:52:34.778Z,1020.38
2022-12-03T02:53:34.759Z,1020.36
2022-12-03T02:54:34.757Z,1020.38
2022-12-03T02:55:37.194Z,1020.35
2022-12-03T02:56:34.754Z,1020.32
2022-12-03T02:57:34.718Z,1020.32
2022-12-03T02:58:34.717Z,1020.35
2022-12-03T02:59:34.696Z,1020.34
2022-12-03T03:00:34.813Z,1020.38
2022-12-03T03:01:34.784Z,1020.33
2022-12-03T03:02:34.729Z,1020.36
2022-12-03T03:03:34.659Z,1020.33
2022-12-03T03:04:34.649Z,1020.35
2022-12-03T03:05:34.660Z,1020.29
2022-12-03T03:06:34.660Z,1020.31
2022-12-03T03:07:34.706Z,1020.32
2022-12-03T03:08:34.612Z,1020.35
2022-12-03T03:09:34.595Z,1020.30
2022-12-03T03:10:34.606Z,1020.41
2022-12-03T03:11:34.589Z,1020.34
2022-12-03T03:12:38.980Z,1020.37
2022-12-03T03:13:34.547Z,1020.40
2022-12-03T03:14:34.534Z,1020.39
2022-12-03T03:15:34.526Z,1020.34
2022-12-03T03:16:34.586Z,1020.31
2022-12-03T03:17:34.501Z,1020.32
2022-12-03T03:18:34.513Z,1020.33
2022-12-03T03:19:34.483Z,1020.27
2022-12-03T03:20:34.467Z,1020.31
2022-12-03T03:21:34.458Z,1020.28
2022-12-03T03:22:34.454Z,1020.30
2022-12-03T03:23:34.459Z,1020.24
2022-12-03T03:24:34.433Z,1020.21
2022-12-03T03:25:34.412Z,1020.25
2022-12-03T03:26:34.401Z,1020.21
2022-12-03T03:27:34.398Z,1020.22
2022-12-03T03:28:34.428Z,1020.27
2022-12-03T03:29:34.373Z,1020.21
2022-12-03T03:30:34.368Z,1020.18
2022-12-03T03:31:34.437Z,1020.23
2022-12-03T03:32:34.337Z,1020.19
2022-12-03T03:33:34.331Z,1020.21
2022-12-03T03:34:34.349Z,1020.18
2022-12-03T03:35:34.328Z,1020.16
2022-12-03T03:36:34.294Z,1020.20
2022-12-03T03:37:34.290Z,1020.10
2022-12-03T03:38:34.304Z,1020.14
2022-12-03T03:39:34.270Z,1020.15
2022-12-03T03:40:34.262Z,1020.13
2022-12-03T03:41:34.242Z,1020.13
2022-12-03T03:42:34.230Z,1020.10
2022-12-03T03:43:34.240Z,1020.12
2022-12-03T03:44:34.251Z,1020.11
2022-12-03T03:45:34.277Z,1020.13
2022-12-03T03:46:34.276Z,1020.07
2022-12-03T03:47:34.174Z,1020.06
2022-12-03T03:48:34.165Z,1020.11
2022-12-03T03:49:34.160Z,1020.03
2022-12-03T03:50:34.174Z,1020.04
2022-12-03T03:51:34.130Z,1020.03
2022-12-03T03:52:34.121Z,1020.01
2022-12-03T03:53:34.109Z,1020.07
2022-12-03T03:54:34.104Z,1020.02
2022-12-03T03:55:34.111Z,1020.03
2022-12-03T03:56:34.109Z,1020.01
2022-12-03T03:57:34.063Z,1020.02
2022-12-03T03:58:34.054Z,1019.97
2022-12-03T03:59:34.048Z,1019.99
2022-12-03T04:00:34.076Z,1019.93
2022-12-03T04:01:34.181Z,1019.98
2022-12-03T04:02:34.036Z,1019.93
2022-12-03T04:03:33.999Z,1019.95
2022-12-03T04:04:34.050Z,1019.95
2022-12-03T04:05:33.985Z,1019.89
2022-12-03T04:06:34.016Z,1019.93
2022-12-03T04:07:34.007Z,1019.92
2022-12-03T04:08:33.964Z,1019.93
2022-12-03T04:09:33.935Z,1019.90
2022-12-03T04:10:33.928Z,1019.89
2022-12-03T04:11:33.920Z,1019.85
2022-12-03T04:12:33.935Z,1019.86
2022-12-03T04:13:33.901Z,1019.80
2022-12-03T04:14:33.888Z,1019.86
2022-12-03T04:15:33.880Z,1019.88
2022-12-03T04:16:34.013Z,1019.81
2022-12-03T04:17:33.876Z,1019.83
2022-12-03T04:18:33.835Z,1019.92
2022-12-03T04:19:33.825Z,1019.85
2022-12-03T04:20:33.817Z,1019.86
2022-12-03T04:21:33.802Z,1019.84
2022-12-03T04:22:33.831Z,1019.84
2022-12-03T04:23:33.788Z,1019.82
2022-12-03T04:24:33.776Z,1019.81
2022-12-03T04:25:33.767Z,1019.81
2022-12-03T04:26:33.754Z,1019.83
2022-12-03T04:27:33.748Z,1019.81
2022-12-03T04:28:33.754Z,1019.81
2022-12-03T04:29:33.759Z,1019.73
2022-12-03T04:30:33.772Z,1019.75
2022-12-03T04:31:33.702Z,1019.75
2022-12-03T04:32:33.712Z,1019.81
2022-12-03T04:33:33.701Z,1019.83
2022-12-03T04:34:33.671Z,1019.74
2022-12-03T04:35:33.737Z,1019.75
2022-12-03T04:36:33.651Z,1019.76
2022-12-03T04:37:33.643Z,1019.79
2022-12-03T04:38:33.655Z,1019.78
2022-12-03T04:39:33.617Z,1019.77
2022-12-03T04:40:33.604Z,1019.77
2022-12-03T04:41:33.600Z,1019.77
2022-12-03T04:42:33.584Z,1019.79
2022-12-03T04:43:33.599Z,1019.76
2022-12-03T04:44:33.557Z,1019.76
2022-12-03T04:45:33.596Z,1019.77
2022-12-03T04:46:33.585Z,1019.72
2022-12-03T04:47:39.661Z,1019.75
2022-12-03T04:48:34.560Z,1019.71
2022-12-03T04:49:33.505Z,1019.78
2022-12-03T04:50:33.495Z,1019.72
2022-12-03T04:51:33.481Z,1019.78
2022-12-03T04:52:33.503Z,1019.78
2022-12-03T04:53:36.096Z,1019.78
2022-12-03T04:54:33.482Z,1019.75
2022-12-03T04:55:33.478Z,1019.80
2022-12-03T04:56:33.441Z,1019.74
2022-12-03T04:57:33.431Z,1019.76
2022-12-03T04:58:33.417Z,1019.75
2022-12-03T04:59:33.398Z,1019.73
2022-12-03T05:00:33.384Z,1019.71
2022-12-03T05:01:33.504Z,1019.75
2022-12-03T05:02:33.437Z,1019.78
2022-12-03T05:03:33.360Z,1019.67
2022-12-03T05:04:33.380Z,1019.75
2022-12-03T05:05:33.340Z,1019.75
2022-12-03T05:06:33.354Z,1019.77
2022-12-03T05:07:33.413Z,1019.70
2022-12-03T05:08:33.314Z,1019.65
2022-12-03T05:09:33.300Z,1019.69
2022-12-03T05:10:33.276Z,1019.67
2022-12-03T05:11:33.268Z,1019.72
2022-12-03T05:12:33.288Z,1019.63
2022-12-03T05:13:33.244Z,1019.65
2022-12-03T05:14:33.233Z,1019.68
2022-12-03T05:15:33.233Z,1019.68
2022-12-03T05:16:33.329Z,1019.65
2022-12-03T05:17:33.234Z,1019.58
2022-12-03T05:18:33.199Z,1019.61
2022-12-03T05:19:33.213Z,1019.56
2022-12-03T05:20:33.209Z,1019.57
2022-12-03T05:21:33.173Z,1019.59
2022-12-03T05:22:33.180Z,1019.56
2022-12-03T05:23:33.166Z,1019.60
2022-12-03T05:24:33.136Z,1019.63
2022-12-03T05:25:33.120Z,1019.56
2022-12-03T05:26:33.114Z,1019.54
2022-12-03T05:27:33.103Z,1019.57
2022-12-03T05:28:33.109Z,1019.59
2022-12-03T05:29:33.115Z,1019.58
2022-12-03T05:30:33.132Z,1019.55
2022-12-03T05:31:33.061Z,1019.52
2022-12-03T05:32:33.096Z,1019.57
2022-12-03T05:33:33.035Z,1019.59
2022-12-03T05:34:33.019Z,1019.59
2022-12-03T05:35:33.015Z,1019.58
2022-12-03T05:36:33.023Z,1019.60
2022-12-03T05:37:32.989Z,1019.63
2022-12-03T05:38:33.019Z,1019.59
2022-12-03T05:39:32.994Z,1019.62
2022-12-03T05:40:32.960Z,1019.60
2022-12-03T05:41:32.953Z,1019.63
2022-12-03T05:42:32.933Z,1019.57
2022-12-03T05:43:32.932Z,1019.59
2022-12-03T05:44:32.941Z,1019.55
2022-12-03T05:45:32.899Z,1019.55
2022-12-03T05:46:33.038Z,1019.53
2022-12-03T05:47:32.885Z,1019.50
2022-12-03T05:48:32.867Z,1019.51
2022-12-03T05:49:32.891Z,1019.50
2022-12-03T05:50:32.883Z,1019.48
2022-12-03T05:51:32.843Z,1019.53
2022-12-03T05:52:32.849Z,1019.49
2022-12-03T05:53:32.823Z,1019.53
2022-12-03T05:54:32.834Z,1019.51
2022-12-03T05:55:32.825Z,1019.50
2022-12-03T05:56:32.780Z,1019.52
2022-12-03T05:57:32.782Z,1019.50
2022-12-03T05:58:32.764Z,1019.51
2022-12-03T05:59:32.753Z,1019.44
2022-12-03T06:00:35.426Z,1019.53
2022-12-03T06:01:32.727Z,1019.51
2022-12-03T06:02:32.887Z,1019.49
2022-12-03T06:03:32.904Z,1019.48
2022-12-03T06:04:32.708Z,1019.44
2022-12-03T06:05:32.685Z,1019.47
2022-12-03T06:06:32.708Z,1019.47
2022-12-03T06:07:32.713Z,1019.46
2022-12-03T06:08:32.676Z,1019.48
2022-12-03T06:09:32.639Z,1019.44
2022-12-03T06:10:32.633Z,1019.47
2022-12-03T06:11:32.619Z,1019.49
2022-12-03T06:12:32.644Z,1019.50
2022-12-03T06:13:32.595Z,1019.51
2022-12-03T06:14:32.591Z,1019.53
2022-12-03T06:15:32.656Z,1019.49
2022-12-03T06:16:32.689Z,1019.55
2022-12-03T06:17:32.573Z,1019.57
2022-12-03T06:18:32.543Z,1019.50
2022-12-03T06:19:32.534Z,1019.55
2022-12-03T06:20:32.517Z,1019.52
2022-12-03T06:21:32.507Z,1019.55
2022-12-03T06:22:32.531Z,1019.53
2022-12-03T06:23:32.520Z,1019.58
2022-12-03T06:24:32.501Z,1019.52
2022-12-03T06:25:32.501Z,1019.51
2022-12-03T06:26:32.460Z,1019.54
2022-12-03T06:27:32.453Z,1019.53
2022-12-03T06:28:32.439Z,1019.52
2022-12-03T06:29:32.447Z,1019.49
2022-12-03T06:30:32.411Z,1019.51
2022-12-03T06:31:32.471Z,1019.49
2022-12-03T06:32:32.392Z,1019.48
2022-12-03T06:33:32.402Z,1019.48
2022-12-03T06:34:32.368Z,1019.48
2022-12-03T06:35:32.392Z,1019.52
2022-12-03T06:36:32.355Z,1019.51
2022-12-03T06:37:32.341Z,1019.48
2022-12-03T06:38:32.332Z,1019.55
2022-12-03T06:39:32.358Z,1019.54
2022-12-03T06:40:32.321Z,1019.55
2022-12-03T06:41:32.294Z,1019.60
2022-12-03T06:42:32.283Z,1019.61
2022-12-03T06:43:32.278Z,1019.56
2022-12-03T06:44:32.267Z,1019.58
2022-12-03T06:45:32.286Z,1019.51
2022-12-03T06:46:32.280Z,1019.54
2022-12-03T06:47:32.225Z,1019.47
2022-12-03T06:48:32.223Z,1019.49
2022-12-03T06:49:32.213Z,1019.50
2022-12-03T06:50:32.224Z,1019.47
2022-12-03T06:51:32.187Z,1019.50
2022-12-03T06:52:32.172Z,1019.53
2022-12-03T06:53:32.163Z,1019.49
2022-12-03T06:54:32.158Z,1019.49
2022-12-03T06:55:32.174Z,1019.48
2022-12-03T06:56:36.843Z,1019.51
2022-12-03T06:57:33.167Z,1019.46
2022-12-03T06:58:32.118Z,1019.47
2022-12-03T06:59:32.103Z,1019.46
2022-12-03T07:00:32.097Z,1019.38
2022-12-03T07:01:32.159Z,1019.46
2022-12-03T07:02:32.185Z,1019.45
2022-12-03T07:03:32.095Z,1019.50
2022-12-03T07:04:32.057Z,1019.44
2022-12-03T07:05:32.040Z,1019.46
2022-12-03T07:06:32.020Z,1019.46
2022-12-03T07:07:32.051Z,1019.48
2022-12-03T07:08:32.009Z,1019.46
2022-12-03T07:09:32.015Z,1019.45
2022-12-03T07:10:31.984Z,1019.48
2022-12-03T07:11:31.973Z,1019.44
2022-12-03T07:12:32.008Z,1019.43
2022-12-03T07:13:31.970Z,1019.49
2022-12-03T07:14:31.969Z,1019.42
2022-12-03T07:15:31.922Z,1019.43
2022-12-03T07:16:31.965Z,1019.43
2022-12-03T07:17:31.900Z,1019.49
2022-12-03T07:18:31.930Z,1019.52
2022-12-03T07:19:33.027Z,1019.48
2022-12-03T07:20:31.870Z,1019.49
2022-12-03T07:21:31.861Z,1019.49
2022-12-03T07:22:31.844Z,1019.48
2022-12-03T07:23:31.888Z,1019.51
2022-12-03T07:24:31.829Z,1019.48
2022-12-03T07:25:31.821Z,1019.48
2022-12-03T07:26:31.824Z,1019.48
2022-12-03T07:27:31.790Z,1019.46
2022-12-03T07:28:31.813Z,1019.43
2022-12-03T07:29:31.795Z,1019.41
2022-12-03T07:30:31.765Z,1019.48
2022-12-03T07:31:31.958Z,1019.46
2022-12-03T07:32:31.738Z,1019.48
2022-12-03T07:33:31.738Z,1019.47
2022-12-03T07:34:31.745Z,1019.47
2022-12-03T07:35:31.715Z,1019.47
2022-12-03T07:36:31.693Z,1019.50
2022-12-03T07:37:31.679Z,1019.47
2022-12-03T07:38:31.668Z,1019.47
2022-12-03T07:39:31.698Z,1019.43
2022-12-03T07:40:31.650Z,1019.46
2022-12-03T07:41:31.645Z,1019.40
2022-12-03T07:42:31.632Z,1019.45
2022-12-03T07:43:31.627Z,1019.44
2022-12-03T07:44:31.638Z,1019.45
2022-12-03T07:45:31.622Z,1019.43
2022-12-03T07:46:31.680Z,1019.46
2022-12-03T07:47:31.578Z,1019.45
2022-12-03T07:48:31.626Z,1019.45
2022-12-03T07:49:31.619Z,1019.46
2022-12-03T07:50:31.540Z,1019.49
2022-12-03T07:51:32.479Z,1019.46
2022-12-03T07:52:31.548Z,1019.46
2022-12-03T07:53:31.516Z,1019.46
2022-12-03T07:54:31.498Z,1019.44
2022-12-03T07:55:31.497Z,1019.47
2022-12-03T07:56:31.475Z,1019.44
2022-12-03T07:57:31.504Z,1019.42
2022-12-03T07:58:31.475Z,1019.45
2022-12-03T07:59:31.456Z,1019.47
2022-12-03T08:00:31.492Z,1019.48
2022-12-03T08:01:31.484Z,1019.46
2022-12-03T08:02:31.514Z,1019.49
2022-12-03T08:03:31.408Z,1019.45
2022-12-03T08:04:31.401Z,1019.44
2022-12-03T08:05:31.381Z,1019.44
2022-12-03T08:06:31.405Z,1019.42
2022-12-03T08:07:31.412Z,1019.37
2022-12-03T08:08:31.353Z,1019.37
2022-12-03T08:09:31.397Z,1019.32
2022-12-03T08:10:31.330Z,1019.37
2022-12-03T08:11:31.311Z,1019.32
2022-12-03T08:12:31.335Z,1019.34
2022-12-03T08:13:31.292Z,1019.36
2022-12-03T08:14:31.280Z,1019.35
2022-12-03T08:15:38.493Z,1019.35
2022-12-03T08:16:32.342Z,1019.38
2022-12-03T08:17:31.248Z,1019.33
2022-12-03T08:18:31.269Z,1019.40
2022-12-03T08:19:31.224Z,1019.36
2022-12-03T08:20:31.218Z,1019.33
2022-12-03T08:21:31.205Z,1019.31
2022-12-03T08:22:31.194Z,1019.32
2022-12-03T08:23:31.207Z,1019.31
2022-12-03T08:24:31.204Z,1019.32
2022-12-03T08:25:31.172Z,1019.29
2022-12-03T08:26:31.158Z,1019.30
2022-12-03T08:27:31.147Z,1019.31
2022-12-03T08:28:31.136Z,1019.29
2022-12-03T08:29:31.162Z,1019.34
2022-12-03T08:30:31.118Z,1019.29
2022-12-03T08:31:33.412Z,1019.26
2022-12-03T08:32:31.120Z,1019.28
2022-12-03T08:33:31.091Z,1019.29
2022-12-03T08:34:31.068Z,1019.23
2022-12-03T08:35:31.090Z,1019.22
2022-12-03T08:36:31.054Z,1019.23
2022-12-03T08:37:31.040Z,1019.22
2022-12-03T08:38:31.038Z,1019.26
2022-12-03T08:39:31.395Z,1019.23
2022-12-03T08:40:31.028Z,1019.25
2022-12-03T08:41:31.006Z,1019.22
2022-12-03T08:42:30.998Z,1019.24
2022-12-03T08:43:30.972Z,1019.22
2022-12-03T08:44:30.954Z,1019.24
2022-12-03T08:45:30.980Z,1019.28
2022-12-03T08:46:31.012Z,1019.28
2022-12-03T08:47:30.931Z,1019.26
2022-12-03T08:48:30.947Z,1019.28
2022-12-03T08:49:30.905Z,1019.27
2022-12-03T08:50:30.892Z,1019.29
2022-12-03T08:51:30.876Z,1019.25
2022-12-03T08:52:30.905Z,1019.26
2022-12-03T08:53:30.860Z,1019.29
2022-12-03T08:54:30.866Z,1019.30
2022-12-03T08:55:30.832Z,1019.28
2022-12-03T08:56:30.827Z,1019.30
2022-12-03T08:57:30.841Z,1019.26
2022-12-03T08:58:30.801Z,1019.27
2022-12-03T08:59:30.788Z,1019.24
2022-12-03T09:00:30.784Z,1019.24
2022-12-03T09:01:30.864Z,1019.23
2022-12-03T09:02:30.796Z,1019.19
2022-12-03T09:03:30.759Z,1019.24
2022-12-03T09:04:30.841Z,1019.20
2022-12-03T09:05:30.893Z,1019.24
2022-12-03T09:06:30.720Z,1019.25
2022-12-03T09:07:30.767Z,1019.27
2022-12-03T09:08:30.722Z,1019.23
2022-12-03T09:09:30.688Z,1019.25
2022-12-03T09:10:30.687Z,1019.27
2022-12-03T09:11:30.668Z,1019.25
2022-12-03T09:12:30.649Z,1019.27
2022-12-03T09:13:30.636Z,1019.26
2022-12-03T09:14:30.648Z,1019.26
2022-12-03T09:15:30.643Z,1019.21
2022-12-03T09:16:30.644Z,1019.23
2022-12-03T09:17:30.611Z,1019.22
2022-12-03T09:18:30.590Z,1019.19
2022-12-03T09:19:30.585Z,1019.19
2022-12-03T09:20:30.610Z,1019.16
2022-12-03T09:21:30.558Z,1019.18
2022-12-03T09:22:30.536Z,1019.16
2022-12-03T09:23:30.536Z,1019.15
2022-12-03T09:24:30.524Z,1019.18
2022-12-03T09:25:30.530Z,1019.14
2022-12-03T09:26:30.495Z,1019.14
2022-12-03T09:27:30.494Z,1019.18
2022-12-03T09:28:30.480Z,1019.08
2022-12-03T09:29:30.468Z,1019.13
2022-12-03T09:30:30.451Z,1019.07
2022-12-03T09:31:30.506Z,1019.09
2022-12-03T09:32:30.489Z,1019.09
2022-12-03T09:33:30.427Z,1019.05
2022-12-03T09:34:30.410Z,1019.06
2022-12-03T09:35:30.407Z,1019.11
2022-12-03T09:36:30.405Z,1019.06
2022-12-03T09:37:30.409Z,1019.08
2022-12-03T09:38:30.363Z,1019.03
2022-12-03T09:39:30.357Z,1019.08
2022-12-03T09:40:30.362Z,1019.05
2022-12-03T09:41:30.342Z,1019.04
2022-12-03T09:42:30.343Z,1019.00
2022-12-03T09:43:49.377Z,1018.98
2022-12-03T09:44:31.312Z,1019.03
2022-12-03T09:45:30.299Z,1019.01
2022-12-03T09:46:30.379Z,1019.02
2022-12-03T09:47:30.276Z,1018.99
2022-12-03T09:48:30.270Z,1018.94
2022-12-03T09:49:30.258Z,1019.00
2022-12-03T09:50:30.237Z,1019.02
2022-12-03T09:51:30.234Z,1019.00
2022-12-03T09:52:30.242Z,1018.99
2022-12-03T09:53:30.218Z,1018.93
2022-12-03T09:54:30.199Z,1018.95
2022-12-03T09:55:30.183Z,1018.94
2022-12-03T09:56:30.186Z,1018.91
2022-12-03T09:57:30.178Z,1018.93
2022-12-03T09:58:34.575Z,1018.87
2022-12-03T09:59:30.162Z,1018.89
2022-12-03T10:00:30.130Z,1018.83
2022-12-03T10:01:30.772Z,1018.87
2022-12-03T10:02:30.112Z,1018.86
2022-12-03T10:03:30.229Z,1018.84
2022-12-03T10:04:30.363Z,1018.83
2022-12-03T10:05:30.087Z,1018.82
2022-12-03T10:06:30.062Z,1018.77
2022-12-03T10:07:30.185Z,1018.79
2022-12-03T10:08:32.364Z,1018.75
2022-12-03T10:09:30.041Z,1018.77
2022-12-03T10:10:30.034Z,1018.77
2022-12-03T10:11:30.012Z,1018.72
2022-12-03T10:12:30.002Z,1018.69
2022-12-03T10:13:29.989Z,1018.73
2022-12-03T10:14:29.984Z,1018.70
2022-12-03T10:15:29.977Z,1018.77
2022-12-03T10:16:30.059Z,1018.75
2022-12-03T10:17:29.970Z,1018.79
2022-12-03T10:18:30.930Z,1018.76
2022-12-03T10:19:29.941Z,1018.79
2022-12-03T10:20:29.940Z,1018.78
2022-12-03T10:21:29.900Z,1018.71
2022-12-03T10:22:29.900Z,1018.76
2022-12-03T10:23:29.884Z,1018.75
2022-12-03T10:24:29.899Z,1018.75
2022-12-03T10:25:29.875Z,1018.75
2022-12-03T10:26:29.870Z,1018.71
2022-12-03T10:27:29.857Z,1018.68
2022-12-03T10:28:29.833Z,1018.71
2022-12-03T10:29:33.644Z,1018.69
2022-12-03T10:30:29.885Z,1018.63
2022-12-03T10:31:29.832Z,1018.65
2022-12-03T10:32:29.792Z,1018.68
2022-12-03T10:33:29.778Z,1018.62
2022-12-03T10:34:29.756Z,1018.65
2022-12-03T10:35:29.751Z,1018.67
2022-12-03T10:36:29.740Z,1018.65
2022-12-03T10:37:29.755Z,1018.61
2022-12-03T10:38:29.715Z,1018.60
2022-12-03T10:39:29.708Z,1018.61
2022-12-03T10:40:29.720Z,1018.65
2022-12-03T10:41:29.680Z,1018.61
2022-12-03T10:42:29.677Z,1018.62
2022-12-03T10:43:29.675Z,1018.59
2022-12-03T10:44:29.659Z,1018.55
2022-12-03T10:45:29.661Z,1018.60
2022-12-03T10:46:29.870Z,1018.57
2022-12-03T10:47:29.841Z,1018.56
2022-12-03T10:48:29.628Z,1018.55
2022-12-03T10:49:30.385Z,1018.58
2022-12-03T10:50:29.609Z,1018.57
2022-12-03T10:51:29.572Z,1018.53
2022-12-03T10:52:29.570Z,1018.54
2022-12-03T10:53:29.575Z,1018.58
2022-12-03T10:54:29.596Z,1018.54
2022-12-03T10:55:29.536Z,1018.56
2022-12-03T10:56:29.542Z,1018.58
2022-12-03T10:57:29.514Z,1018.58
2022-12-03T10:58:29.497Z,1018.58
2022-12-03T10:59:29.509Z,1018.62
2022-12-03T11:00:29.485Z,1018.57
2022-12-03T11:01:29.564Z,1018.56
2022-12-03T11:02:29.466Z,1018.64
2022-12-03T11:03:29.538Z,1018.57
2022-12-03T11:04:29.451Z,1018.59
2022-12-03T11:05:29.437Z,1018.58
2022-12-03T11:06:29.407Z,1018.52
2022-12-03T11:07:29.483Z,1018.52
2022-12-03T11:08:29.395Z,1018.53
2022-12-03T11:09:29.392Z,1018.47
2022-12-03T11:10:29.400Z,1018.52
2022-12-03T11:11:29.371Z,1018.52
2022-12-03T11:12:29.377Z,1018.45
2022-12-03T11:13:29.370Z,1018.44
2022-12-03T11:14:29.340Z,1018.48
2022-12-03T11:15:29.339Z,1018.43
2022-12-03T11:16:29.440Z,1018.49
2022-12-03T11:17:29.296Z,1018.47
2022-12-03T11:18:29.286Z,1018.46
2022-12-03T11:19:29.268Z,1018.40
2022-12-03T11:20:29.276Z,1018.33
2022-12-03T11:21:29.266Z,1018.37
2022-12-03T11:22:29.241Z,1018.34
2022-12-03T11:23:29.233Z,1018.36
2022-12-03T11:24:29.224Z,1018.35
2022-12-03T11:25:29.218Z,1018.36
2022-12-03T11:26:29.224Z,1018.33
2022-12-03T11:27:29.201Z,1018.35
2022-12-03T11:28:29.190Z,1018.32
2022-12-03T11:29:29.163Z,1018.27
2022-12-03T11:30:29.157Z,1018.24
2022-12-03T11:31:29.264Z,1018.24
2022-12-03T11:32:31.965Z,1018.25
2022-12-03T11:33:29.129Z,1018.22
2022-12-03T11:34:29.126Z,1018.20
2022-12-03T11:35:29.117Z,1018.18
2022-12-03T11:36:54.176Z,1018.22
2022-12-03T11:37:30.103Z,1018.18
2022-12-03T11:38:29.077Z,1018.14
2022-12-03T11:39:29.062Z,1018.16
2022-12-03T11:40:29.062Z,1018.17
2022-12-03T11:41:29.029Z,1018.18
2022-12-03T11:42:29.043Z,1018.10
2022-12-03T11:43:29.016Z,1018.11
2022-12-03T11:44:29.024Z,1018.13
2022-12-03T11:45:28.988Z,1018.05
2022-12-03T11:46:29.062Z,1018.09
2022-12-03T11:47:28.997Z,1018.16
2022-12-03T11:48:28.954Z,1018.08
2022-12-03T11:49:28.946Z,1018.05
2022-12-03T11:50:28.939Z,1018.09
2022-12-03T11:51:28.984Z,1018.08
2022-12-03T11:52:28.919Z,1018.07
2022-12-03T11:53:28.918Z,1018.04
2022-12-03T11:54:28.894Z,1018.07
2022-12-03T11:55:28.877Z,1018.04
2022-12-03T11:56:28.885Z,1018.09
2022-12-03T11:57:28.864Z,1018.05
2022-12-03T11:58:28.860Z,1018.05
2022-12-03T11:59:28.836Z,1018.05
2022-12-03T12:00:28.840Z,1018.03
2022-12-03T12:01:28.808Z,1018.03
2022-12-03T12:02:28.874Z,1018.03
2022-12-03T12:03:29.025Z,1018.06
2022-12-03T12:04:28.877Z,1018.03
2022-12-03T12:05:28.772Z,1018.03